Time;durP1;ratioP1;P1;durP2;ratioP2;P2;SDS_P1;SDS_P2;PMS_P1;PMS_P2;Temp;Humidity;BMP_temperature;BMP_pressure;BME280_temperature;BME280_humidity;BME280_pressure;Samples;Min_cycle;Max_cycle;Signal;HPM_P1;HPM_P2
2021/11/13 00:00:54;;;;;;;74.05;35.63;;;7.20;81.70;;;6.59;67.81;94906.50;4942317;28;20231;-89
2021/11/13 00:03:22;;;;;;;67.68;33.78;;;7.30;81.70;;;6.59;67.84;94906.50;4942163;28;20222;-89
2021/11/13 00:05:49;;;;;;;74.40;35.53;;;7.30;82.40;;;6.60;67.94;94908.13;4942908;28;20286;-90
2021/11/13 00:08:16;;;;;;;68.25;35.63;;;7.30;81.60;;;6.60;67.85;94912.53;4958911;28;20199;-90
2021/11/13 00:10:45;;;;;;;79.18;36.85;;;7.30;81.60;;;6.59;67.60;94906.50;4943079;28;20187;-88
2021/11/13 00:13:12;;;;;;;71.80;34.42;;;7.30;81.60;;;6.58;67.74;94902.28;4941372;28;20198;-91
2021/11/13 00:15:40;;;;;;;73.43;34.13;;;7.30;81.50;;;6.59;67.65;94911.72;4942642;28;20213;-89
2021/11/13 00:18:09;;;;;;;74.13;36.22;;;7.30;81.50;;;6.51;67.88;94894.31;4941746;28;20194;-89
2021/11/13 00:20:37;;;;;;;62.72;33.25;;;7.30;81.50;;;6.59;67.98;94905.69;4941925;28;20226;-90
2021/11/13 00:23:04;;;;;;;71.10;34.28;;;7.40;81.60;;;6.59;67.71;94900.47;4942440;28;20199;-90
2021/11/13 00:25:32;;;;;;;75.00;37.15;;;7.30;81.50;;;6.59;67.94;94901.28;4942394;28;20198;-90
2021/11/13 00:28:00;;;;;;;75.80;35.20;;;7.30;81.50;;;6.59;67.76;94903.09;4942350;28;20202;-90
2021/11/13 00:30:28;;;;;;;69.88;33.67;;;7.30;81.50;;;6.58;67.71;94897.06;4942242;28;20226;-90
2021/11/13 00:32:55;;;;;;;64.57;31.58;;;7.30;81.50;;;6.54;67.80;94887.94;4925118;28;20564;-89
2021/11/13 00:35:23;;;;;;;63.97;33.40;;;7.30;81.50;;;6.57;67.86;94893.63;4941277;28;20265;-89
2021/11/13 00:37:50;;;;;;;63.28;30.83;;;7.20;81.30;;;6.51;67.57;94883.88;4925352;28;20230;-88
2021/11/13 00:40:20;;;;;;;58.60;30.60;;;7.30;81.40;;;6.55;67.76;94898.22;4942138;28;20250;-89
2021/11/13 00:42:48;;;;;;;62.92;31.88;;;7.30;81.40;;;6.55;67.93;94893.00;4925827;28;20294;-90
2021/11/13 00:45:16;;;;;;;72.90;35.20;;;7.30;81.40;;;6.53;67.70;94889.75;4949331;29;20219;-90
2021/11/13 00:47:43;;;;;;;68.13;34.50;;;7.30;81.50;;;6.51;68.00;94885.69;4940137;28;20650;-90
2021/11/13 00:50:13;;;;;;;67.07;34.40;;;7.30;81.40;;;6.52;67.62;94893.34;4941788;28;20222;-90
2021/11/13 00:52:42;;;;;;;65.68;34.00;;;7.30;81.40;;;6.53;67.60;94889.75;4941595;28;20206;-89
2021/11/13 00:55:13;;;;;;;71.85;33.85;;;7.20;81.30;;;6.47;67.49;94879.16;4922276;29;20215;-90
2021/11/13 00:57:41;;;;;;;62.75;32.20;;;7.30;81.30;;;6.49;67.72;94888.44;4956760;28;20218;-90
2021/11/13 01:00:13;;;;;;;59.80;32.20;;;7.20;81.20;;;6.48;67.68;94879.03;4941282;28;20310;-89
2021/11/13 01:02:41;;;;;;;63.35;31.00;;;7.20;81.20;;;6.48;67.66;94880.81;4925325;28;20199;-90
2021/11/13 01:05:08;;;;;;;60.92;32.00;;;7.20;81.20;;;6.40;67.81;94871.22;4926209;28;20223;-90
2021/11/13 01:07:37;;;;;;;60.97;30.90;;;7.20;81.20;;;6.47;67.73;94880.00;4939934;28;20231;-90
2021/11/13 01:10:07;;;;;;;61.72;32.13;;;7.20;82.10;;;6.47;67.55;94877.41;4939423;28;20269;-90
2021/11/13 01:12:35;;;;;;;57.88;30.92;;;7.20;81.30;;;6.48;67.57;94872.97;4941322;28;20251;-89
2021/11/13 01:15:07;;;;;;;60.90;32.05;;;7.20;81.30;;;6.46;67.59;94878.38;4925860;28;20693;-89
2021/11/13 01:17:36;;;;;;;62.35;31.55;;;7.20;81.30;;;6.41;67.61;94870.25;4941818;28;20202;-89
2021/11/13 01:20:06;;;;;;;59.33;30.65;;;7.20;81.20;;;6.46;67.49;94877.53;4940893;28;20282;-90
2021/11/13 01:22:36;;;;;;;61.33;31.70;;;7.20;81.20;;;6.43;67.71;94873.47;4932878;29;20616;-90
2021/11/13 01:25:06;;;;;;;63.25;31.42;;;7.20;81.20;;;6.46;67.84;94874.94;4922523;29;20251;-90
2021/11/13 01:27:34;;;;;;;57.70;30.38;;;7.20;81.20;;;6.47;67.74;94877.41;4938583;28;20195;-90
2021/11/13 01:30:03;;;;;;;56.90;29.67;;;7.10;81.20;;;6.46;67.74;94875.75;4941535;28;20244;-90
2021/11/13 01:32:31;;;;;;;57.80;30.48;;;7.20;81.20;;;6.47;67.61;94873.97;4941282;28;20580;-90
2021/11/13 01:34:58;;;;;;;58.33;30.88;;;7.20;81.30;;;6.46;67.74;94867.13;4921791;29;20633;-90
2021/11/13 01:37:25;;;;;;;62.05;31.50;;;7.20;81.30;;;6.48;67.62;94873.81;4925009;28;20214;-89
2021/11/13 01:39:52;;;;;;;58.85;31.10;;;7.20;81.30;;;6.48;67.31;94867.78;4925763;28;20238;-90
2021/11/13 01:42:25;;;;;;;56.72;29.20;;;7.20;81.30;;;6.48;67.89;94863.41;4937961;29;20230;-90
2021/11/13 01:44:54;;;;;;;54.10;29.35;;;7.20;81.30;;;6.49;67.39;94856.38;4955861;28;20215;-90
2021/11/13 01:47:22;;;;;;;55.30;29.10;;;7.20;81.20;;;6.47;67.65;94860.94;4940139;28;20211;-90
2021/11/13 01:49:51;;;;;;;53.33;29.23;;;7.20;81.20;;;6.47;67.39;94858.31;4925628;28;20230;-90
2021/11/13 01:52:18;;;;;;;56.60;30.40;;;7.20;81.10;;;6.45;67.31;94852.50;4940928;28;20715;-89
2021/11/13 01:54:46;;;;;;;56.10;29.38;;;7.20;81.10;;;6.42;67.40;94851.03;4941493;28;20225;-90
2021/11/13 01:57:21;;;;;;;54.33;28.23;;;7.20;81.10;;;6.36;67.49;94846.47;4940992;28;20241;-90
2021/11/13 01:59:51;;;;;;;55.85;29.27;;;7.10;81.00;;;6.40;67.28;94850.38;4942593;28;20214;-90
2021/11/13 02:02:19;;;;;;;54.83;29.65;;;7.10;81.10;;;6.33;67.46;94833.78;4922436;29;20231;-91
2021/11/13 02:04:46;;;;;;;57.38;31.13;;;7.10;81.00;;;6.35;67.40;94837.84;4942835;28;20224;-90
2021/11/13 02:07:14;;;;;;;57.08;30.88;;;7.10;81.10;;;6.37;67.62;94846.31;4919497;28;20203;-90
2021/11/13 02:09:42;;;;;;;62.13;30.48;;;7.10;81.10;;;6.35;67.33;94842.25;4944594;28;20230;-90
2021/11/13 02:12:10;;;;;;;56.13;29.73;;;7.10;81.00;;;6.36;67.65;94846.47;4929173;28;20294;-90
2021/11/13 02:14:37;;;;;;;58.53;30.98;;;7.10;81.10;;;6.35;67.60;94837.84;4927730;28;20238;-89
2021/11/13 02:17:05;;;;;;;59.13;29.98;;;7.10;81.00;;;6.31;67.53;94831.38;4945365;28;20207;-89
2021/11/13 02:19:33;;;;;;;60.80;30.83;;;7.10;81.00;;;6.35;67.62;94834.44;4924989;28;20215;-90
2021/11/13 02:22:01;;;;;;;61.45;31.05;;;7.10;81.00;;;6.36;67.55;94836.03;4944382;28;20239;-89
2021/11/13 02:24:29;;;;;;;59.17;29.92;;;7.10;81.00;;;6.36;67.55;94836.88;4945702;28;20211;-90
2021/11/13 02:26:56;;;;;;;56.95;29.20;;;7.10;81.10;;;6.29;67.28;94828.09;4943400;29;20199;-89
2021/11/13 02:29:24;;;;;;;59.33;29.20;;;7.10;81.00;;;6.36;67.27;94828.22;4925538;29;20223;-89
2021/11/13 02:31:54;;;;;;;54.65;29.02;;;7.10;81.10;;;6.32;67.28;94829.56;4942899;29;20191;-90
2021/11/13 02:34:23;;;;;;;54.28;28.52;;;7.10;81.10;;;6.30;67.30;94829.72;4941629;28;20222;-89
2021/11/13 02:36:52;;;;;;;53.97;27.83;;;7.10;81.00;;;6.33;67.43;94829.38;4924852;28;20204;-90
2021/11/13 02:39:20;;;;;;;55.67;29.58;;;7.10;81.80;;;6.28;67.18;94818.66;4938877;28;20261;-90
2021/11/13 02:41:48;;;;;;;56.55;28.20;;;7.10;81.00;;;6.27;67.47;94809.22;4931783;28;20246;-89
2021/11/13 02:44:17;;;;;;;57.15;29.10;;;7.00;80.90;;;6.29;67.39;94812.47;4919413;29;20264;-90
2021/11/13 02:46:45;;;;;;;53.92;29.67;;;7.00;80.90;;;6.27;67.53;94804.00;4927402;28;20228;-90
2021/11/13 02:49:16;;;;;;;55.42;28.00;;;7.10;80.90;;;6.22;67.53;94788.88;4941337;28;20668;-89
2021/11/13 02:51:47;;;;;;;56.25;28.58;;;7.00;80.90;;;6.26;67.58;94797.16;4932231;29;20207;-90
2021/11/13 02:54:14;;;;;;;52.90;27.08;;;7.00;80.90;;;6.26;67.49;94797.16;4939697;28;20226;-91
2021/11/13 02:56:42;;;;;;;52.60;26.27;;;7.00;80.90;;;6.24;67.40;94791.34;4938710;28;20601;-90
2021/11/13 02:59:10;;;;;;;51.33;27.77;;;7.00;80.90;;;6.22;67.43;94790.69;4940579;28;20222;-89
2021/11/13 03:01:37;;;;;;;52.53;28.90;;;7.00;81.00;;;6.25;67.12;94798.19;4919949;28;20246;-90
2021/11/13 03:04:05;;;;;;;52.40;27.23;;;7.00;81.00;;;6.24;67.59;94792.13;4945799;28;20297;-90
2021/11/13 03:06:32;;;;;;;55.55;27.48;;;7.10;81.10;;;6.27;67.66;94793.59;4945113;28;20195;-90
2021/11/13 03:09:00;;;;;;;52.00;27.17;;;7.00;81.00;;;6.27;67.26;94790.97;4938956;28;20223;-90
2021/11/13 03:11:28;;;;;;;54.63;26.33;;;7.00;81.00;;;6.21;67.29;94783.84;4940872;28;20198;-90
2021/11/13 03:13:55;;;;;;;50.15;25.67;;;7.00;81.00;;;6.28;67.39;94787.41;4938875;28;20250;-90
2021/11/13 03:16:22;;;;;;;54.38;26.67;;;7.00;81.00;;;6.24;67.25;94784.31;4937966;28;20227;-90
2021/11/13 03:18:50;;;;;;;47.65;25.08;;;7.00;81.00;;;6.27;67.46;94790.19;4933538;28;20250;-90
2021/11/13 03:21:18;;;;;;;48.45;25.42;;;7.00;80.90;;;6.27;67.15;94790.19;4941458;28;20222;-89
2021/11/13 03:23:47;;;;;;;53.72;27.05;;;7.00;80.90;;;6.25;67.33;94780.75;4964811;28;20219;-90
2021/11/13 03:26:22;;;;;;;54.00;26.77;;;7.00;80.90;;;6.22;67.43;94780.25;4958144;28;20653;-90
2021/11/13 03:29:06;;;;;;;44.85;24.00;;;7.00;80.90;;;6.20;67.20;94780.44;4959705;28;20713;-91
2021/11/13 03:31:33;;;;;;;50.67;25.40;;;7.00;80.90;;;6.21;67.73;94782.06;4941343;28;20670;-90
2021/11/13 03:34:04;;;;;;;49.53;24.83;;;7.00;80.90;;;6.16;67.09;94775.72;4941526;28;20225;-89
2021/11/13 03:36:32;;;;;;;48.20;24.65;;;7.00;80.80;;;6.11;67.05;94778.03;4940257;28;20191;-89
2021/11/13 03:38:59;;;;;;;44.95;24.40;;;6.90;80.70;;;6.08;67.53;94785.19;4924090;28;20239;-90
2021/11/13 03:41:29;;;;;;;49.40;25.42;;;7.00;80.80;;;6.13;67.35;94789.06;4926134;28;20261;-91
2021/11/13 03:43:58;;;;;;;49.97;24.70;;;6.90;80.70;;;6.05;67.35;94782.94;4943834;28;20591;-89
2021/11/13 03:46:26;;;;;;;57.30;27.70;;;6.90;80.70;;;6.09;67.39;94791.19;4942863;28;20207;-91
2021/11/13 03:48:54;;;;;;;56.20;26.77;;;6.90;80.70;;;6.07;67.20;94793.16;4922819;29;20289;-90
2021/11/13 03:51:22;;;;;;;56.53;27.98;;;6.90;80.70;;;6.06;67.31;94791.53;4939102;28;20662;-90
2021/11/13 03:53:50;;;;;;;49.55;25.35;;;6.90;80.70;;;6.04;67.66;94785.69;4937928;29;20233;-91
2021/11/13 03:56:17;;;;;;;48.65;25.85;;;6.80;80.60;;;6.04;67.39;94777.88;4940745;28;20203;-90
2021/11/13 03:58:45;;;;;;;54.40;26.88;;;6.80;80.70;;;6.04;67.43;94786.50;4940729;28;20233;-91
2021/11/13 04:01:12;;;;;;;57.63;26.40;;;6.80;80.80;;;6.01;67.54;94781.63;4924721;28;20289;-90
2021/11/13 04:03:39;;;;;;;56.05;27.30;;;6.80;80.80;;;6.06;67.37;94789.75;4943436;28;20229;-91
2021/11/13 04:06:06;;;;;;;52.97;26.13;;;6.80;80.80;;;6.08;67.28;94798.22;4924784;28;20194;-89
2021/11/13 04:08:33;;;;;;;56.40;27.60;;;6.90;80.90;;;6.06;67.24;94789.75;4940553;28;20233;-90
2021/11/13 04:11:01;;;;;;;48.72;24.98;;;6.80;80.90;;;6.09;67.48;94788.59;4940525;28;20232;-87
2021/11/13 04:13:28;;;;;;;53.17;26.05;;;6.90;80.90;;;6.11;67.44;94798.88;4939994;28;20222;-90
2021/11/13 04:15:56;;;;;;;53.75;26.00;;;6.80;80.90;;;6.12;67.13;94800.50;4925003;28;20305;-90
2021/11/13 04:18:23;;;;;;;53.60;27.30;;;6.80;80.90;;;6.07;67.71;94778.34;4949964;28;20243;-89
2021/11/13 04:20:52;;;;;;;52.35;25.23;;;6.80;80.90;;;6.12;66.98;94779.66;4937354;29;20313;-89
2021/11/13 04:23:20;;;;;;;46.78;24.30;;;6.80;80.90;;;6.08;67.41;94779.19;4964927;28;20591;-90
2021/11/13 04:25:47;;;;;;;49.03;24.05;;;6.80;80.80;;;6.12;67.27;94780.47;4943273;28;20214;-90
2021/11/13 04:28:15;;;;;;;46.55;23.58;;;6.80;81.70;;;6.11;67.53;94778.81;4949508;28;20249;-90
2021/11/13 04:30:43;;;;;;;46.38;24.33;;;6.80;80.80;;;6.03;67.28;94771.03;4942370;28;20653;-89
2021/11/13 04:33:10;;;;;;;43.60;21.63;;;6.90;80.80;;;6.06;67.27;94775.91;4957519;28;20199;-89
2021/11/13 04:36:01;;;;;;;49.35;24.25;;;6.80;80.80;;;6.11;67.29;94780.63;4943087;28;20303;-89
2021/11/13 04:38:32;;;;;;;52.80;23.95;;;6.80;80.80;;;6.06;67.16;94773.31;4945512;28;20293;-89
2021/11/13 04:41:03;;;;;;;46.53;22.83;;;6.80;80.80;;;6.04;67.07;94765.69;4941570;28;20203;-90
2021/11/13 04:43:30;;;;;;;45.50;23.27;;;6.80;80.80;;;6.06;67.20;94766.31;4941896;28;20215;-90
2021/11/13 04:45:59;;;;;;;44.90;22.52;;;6.80;80.80;;;6.09;67.28;94767.75;4926095;28;20254;-90
2021/11/13 04:48:27;;;;;;;45.03;22.92;;;6.90;80.80;;;6.14;67.22;94770.69;4941463;28;20226;-89
2021/11/13 04:50:57;;;;;;;40.13;21.33;;;6.90;80.80;;;6.13;67.16;94771.66;4926289;28;20630;-89
2021/11/13 04:53:25;;;;;;;40.28;21.17;;;6.90;80.80;;;6.16;67.35;94775.72;4941912;28;20720;-88
2021/11/13 04:55:53;;;;;;;44.97;21.38;;;6.90;80.80;;;6.18;67.27;94776.38;4926259;28;20222;-87
2021/11/13 04:58:21;;;;;;;48.13;22.10;;;6.90;81.60;;;6.16;67.62;94775.72;4941385;28;20759;-88
2021/11/13 05:00:48;;;;;;;48.42;23.15;;;6.90;80.80;;;6.15;67.36;94768.91;4940939;28;20708;-88
2021/11/13 05:03:15;;;;;;;47.75;22.42;;;6.90;80.80;;;6.18;67.27;94771.19;4942807;28;20688;-88
2021/11/13 05:05:42;;;;;;;45.58;23.33;;;6.90;80.80;;;6.19;67.44;94759.75;4952839;28;20282;-89
2021/11/13 05:08:10;;;;;;;46.35;24.80;;;6.90;80.80;;;6.19;66.89;94768.41;4955808;28;20669;-89
2021/11/13 05:10:38;;;;;;;50.05;23.45;;;6.90;80.70;;;6.18;66.94;94771.97;4939643;28;20230;-88
2021/11/13 05:13:05;;;;;;;44.35;22.45;;;6.90;80.70;;;6.18;67.11;94765.97;4936469;28;20238;-88
2021/11/13 05:15:33;;;;;;;46.70;22.83;;;6.90;80.70;;;6.19;67.00;94772.78;4939353;28;20237;-88
2021/11/13 05:18:00;;;;;;;45.05;21.63;;;6.90;80.70;;;6.18;66.56;94766.75;4940123;28;20262;-88
2021/11/13 05:20:27;;;;;;;52.67;23.00;;;6.90;80.70;;;6.12;66.96;94764.84;4955016;28;20199;-88
2021/11/13 05:22:54;;;;;;;42.45;21.77;;;6.90;80.60;;;6.09;67.24;94760.78;4956490;28;20288;-88
2021/11/13 05:25:22;;;;;;;45.13;24.15;;;6.90;80.60;;;6.12;66.93;94770.03;4940941;28;20238;-89
2021/11/13 05:27:51;;;;;;;44.10;22.70;;;6.90;80.60;;;6.10;67.06;94764.19;4925739;28;20209;-89
2021/11/13 05:30:23;;;;;;;49.72;22.90;;;6.90;80.50;;;6.06;67.10;94770.72;4941223;28;20622;-89
2021/11/13 05:32:52;;;;;;;47.20;21.73;;;6.90;80.60;;;6.08;66.95;94773.97;4924690;28;20213;-89
2021/11/13 05:35:21;;;;;;;47.40;22.23;;;6.80;80.50;;;6.09;67.02;94778.19;4940743;28;20234;-89
2021/11/13 05:37:50;;;;;;;48.28;23.17;;;6.80;80.60;;;6.08;67.12;94773.97;4941403;28;20199;-89
2021/11/13 05:40:18;;;;;;;48.58;22.48;;;6.80;80.60;;;6.09;66.89;94775.56;4943749;28;20237;-88
2021/11/13 05:42:51;;;;;;;52.00;22.50;;;6.80;80.60;;;6.10;66.91;94787.63;4945914;28;20273;-89
2021/11/13 05:45:19;;;;;;;48.35;21.60;;;6.80;80.60;;;6.07;67.00;94783.56;4944887;28;20309;-89
2021/11/13 05:47:47;;;;;;;46.53;23.80;;;6.90;80.60;;;6.05;67.01;94789.91;4925390;29;20199;-89
2021/11/13 05:50:17;;;;;;;44.78;21.27;;;6.80;80.50;;;6.03;66.83;94786.66;4964856;28;20237;-88
2021/11/13 05:52:48;;;;;;;43.28;20.52;;;6.80;80.40;;;6.01;67.18;94793.84;4959835;28;20203;-89
2021/11/13 05:55:16;;;;;;;44.45;21.23;;;6.80;80.50;;;6.02;66.86;94805.88;4945147;28;20274;-87
2021/11/13 05:57:44;;;;;;;45.67;20.85;;;6.80;80.50;;;6.00;67.19;94800.81;4945054;28;20302;-88
2021/11/13 06:00:18;;;;;;;46.05;22.83;;;6.80;80.60;;;6.04;67.07;94796.09;4944562;28;20693;-90
2021/11/13 06:02:46;;;;;;;47.78;21.55;;;6.80;80.70;;;6.05;67.10;94797.72;4928655;28;20305;-89
2021/11/13 06:05:17;;;;;;;43.20;20.55;;;6.80;80.70;;;6.05;67.30;94802.94;4944646;28;20317;-89
2021/11/13 06:07:45;;;;;;;43.05;21.10;;;6.80;80.70;;;6.04;67.00;94809.13;4944724;28;20203;-89
2021/11/13 06:10:15;;;;;;;46.50;21.17;;;6.80;80.70;;;6.04;67.08;94815.16;4944450;28;20228;-89
2021/11/13 06:12:42;;;;;;;42.47;20.02;;;6.80;80.60;;;6.03;67.08;94812.69;4943668;28;20203;-90
2021/11/13 06:15:11;;;;;;;45.25;22.67;;;6.80;80.70;;;6.07;67.14;94821.81;4944706;28;20226;-89
2021/11/13 06:17:39;;;;;;;49.47;22.92;;;6.80;80.70;;;6.07;66.81;94830.44;4928618;28;20226;-89
2021/11/13 06:20:08;;;;;;;46.00;22.45;;;6.80;80.70;;;6.01;66.94;94830.28;4960208;28;20223;-89
2021/11/13 06:22:36;;;;;;;44.25;21.38;;;6.80;80.90;;;6.05;67.09;94836.78;4944170;28;20230;-88
2021/11/13 06:25:06;;;;;;;39.60;19.92;;;6.80;80.60;;;6.06;66.92;94844.41;4960526;28;20711;-89
2021/11/13 06:27:34;;;;;;;39.53;18.40;;;6.80;80.60;;;6.08;67.01;94855.50;4940949;29;20587;-89
2021/11/13 06:30:01;;;;;;;38.28;18.52;;;6.80;80.60;;;6.08;66.95;94849.47;4968223;28;20229;-88
2021/11/13 06:32:28;;;;;;;39.80;19.23;;;6.80;80.60;;;6.07;66.93;94851.25;4959923;28;20253;-89
2021/11/13 06:34:58;;;;;;;41.13;19.58;;;6.80;80.60;;;6.07;66.85;94856.47;4941420;29;20259;-89
2021/11/13 06:37:29;;;;;;;40.55;20.08;;;6.80;80.60;;;6.06;66.90;94859.25;4947016;28;20691;-90
2021/11/13 06:39:57;;;;;;;38.60;19.83;;;6.80;80.50;;;6.05;66.86;94863.66;4960434;28;20222;-90
2021/11/13 06:42:24;;;;;;;39.72;19.30;;;6.80;80.50;;;6.00;66.89;94863.31;4960358;28;20222;-89
2021/11/13 06:44:52;;;;;;;41.45;19.65;;;6.80;80.60;;;6.07;66.96;94868.69;4943492;28;20218;-89
2021/11/13 06:47:19;;;;;;;42.15;20.85;;;6.80;80.60;;;6.09;67.13;94871.91;4942989;28;20666;-88
2021/11/13 06:49:47;;;;;;;44.33;20.88;;;6.80;81.50;;;6.05;67.10;94868.03;4944079;28;20226;-88
2021/11/13 06:52:14;;;;;;;47.33;22.00;;;6.80;80.60;;;6.08;67.04;94873.72;4943344;28;20203;-89
2021/11/13 06:54:42;;;;;;;44.50;20.90;;;6.80;80.60;;;6.02;67.03;94865.75;4943776;28;20219;-88
2021/11/13 06:57:10;;;;;;;46.38;21.23;;;6.80;80.60;;;6.06;67.15;94880.06;4928013;28;20285;-89
2021/11/13 06:59:37;;;;;;;51.00;22.38;;;6.80;80.60;;;6.06;66.91;94878.25;4943513;28;20215;-89
2021/11/13 07:02:05;;;;;;;41.55;20.67;;;6.90;80.70;;;6.06;66.97;94874.88;4943708;28;20218;-88
2021/11/13 07:04:32;;;;;;;47.13;23.42;;;6.80;80.60;;;6.08;66.85;94875.53;4942404;28;20254;-89
2021/11/13 07:06:59;;;;;;;46.30;21.58;;;6.80;80.60;;;6.09;66.77;94885.75;4962612;28;20206;-89
2021/11/13 07:09:26;;;;;;;45.47;20.38;;;6.80;80.70;;;6.11;67.19;94884.78;4961790;28;20240;-88
2021/11/13 07:11:54;;;;;;;45.53;21.88;;;6.80;80.80;;;6.12;67.12;94889.81;4926678;29;20207;-89
2021/11/13 07:14:21;;;;;;;42.95;21.35;;;6.80;80.80;;;6.14;66.90;94893.09;4971632;28;20230;-89
2021/11/13 07:16:48;;;;;;;46.95;22.75;;;6.80;80.70;;;6.14;66.90;94895.69;4947941;28;20194;-89
2021/11/13 07:19:16;;;;;;;43.30;20.88;;;6.80;80.70;;;6.15;67.12;94889.50;4951554;28;20281;-87
2021/11/13 07:21:44;;;;;;;45.72;21.58;;;6.80;80.80;;;6.13;67.09;94888.03;4955381;29;20215;-88
2021/11/13 07:24:12;;;;;;;46.65;21.77;;;6.90;80.90;;;6.17;67.19;94889.34;4948212;28;20708;-89
2021/11/13 07:26:51;;;;;;;43.72;20.33;;;6.90;80.80;;;6.19;67.26;94887.38;4963693;28;20213;-88
2021/11/13 07:29:23;;;;;;;43.58;20.52;;;6.90;80.80;;;6.21;67.45;94888.84;4951621;28;20222;-88
2021/11/13 07:31:51;;;;;;;44.90;21.20;;;6.90;80.80;;;6.21;66.93;94893.22;4943398;28;20217;-87
2021/11/13 07:34:18;;;;;;;42.10;20.17;;;6.90;80.80;;;6.25;67.10;94894.53;4942141;28;20720;-88
2021/11/13 07:36:46;;;;;;;48.15;21.02;;;6.90;80.90;;;6.27;67.01;94895.16;4959850;28;20205;-88
2021/11/13 07:39:14;;;;;;;40.92;19.02;;;6.90;80.80;;;6.29;67.04;94898.44;4971090;28;20261;-87
2021/11/13 07:41:41;;;;;;;43.15;20.75;;;6.90;80.90;;;6.33;67.30;94898.91;4953140;28;20207;-88
2021/11/13 07:44:09;;;;;;;40.20;19.05;;;7.00;80.90;;;6.36;67.33;94893.34;4942983;28;20788;-88
2021/11/13 07:46:36;;;;;;;39.33;19.83;;;7.00;81.00;;;6.39;67.15;94893.03;4943513;28;20253;-88
2021/11/13 07:49:04;;;;;;;39.10;19.20;;;7.00;81.00;;;6.47;67.25;94897.41;4958021;28;20592;-88
2021/11/13 07:51:31;;;;;;;39.65;19.17;;;7.10;81.10;;;6.51;67.16;94899.53;4931054;29;20206;-88
2021/11/13 07:53:59;;;;;;;39.53;19.13;;;7.10;81.10;;;6.55;67.22;94890.41;4908362;29;20290;-88
2021/11/13 07:56:26;;;;;;;37.15;18.85;;;7.10;81.20;;;6.62;67.36;94897.56;4938366;28;20234;-88
2021/11/13 07:58:54;;;;;;;39.78;18.15;;;7.20;81.20;;;6.62;67.05;94890.53;4943093;28;20238;-88
2021/11/13 08:01:21;;;;;;;46.85;19.80;;;7.20;81.20;;;6.66;66.96;94891.81;4942898;28;20206;-88
2021/11/13 08:03:48;;;;;;;41.78;19.67;;;7.20;81.00;;;6.69;67.05;94888.09;4922432;28;20263;-88
2021/11/13 08:06:16;;;;;;;39.45;19.38;;;7.30;81.00;;;6.69;67.13;94877.66;4934298;28;20217;-88
2021/11/13 08:08:43;;;;;;;39.55;19.15;;;7.30;81.00;;;6.69;66.81;94868.03;4941661;28;20284;-87
2021/11/13 08:11:11;;;;;;;36.08;18.25;;;7.30;80.90;;;6.74;67.00;94875.34;4940702;28;20206;-88
2021/11/13 08:13:40;;;;;;;40.85;19.55;;;7.40;81.00;;;6.70;66.99;94869.66;4941366;28;20250;-90
2021/11/13 08:16:08;;;;;;;36.75;17.92;;;7.40;80.90;;;6.73;66.83;94871.13;4942001;28;20206;-88
2021/11/13 08:18:35;;;;;;;37.85;18.80;;;7.40;80.90;;;6.70;66.91;94872.28;4926041;28;20223;-88
2021/11/13 08:21:03;;;;;;;37.60;19.65;;;7.40;80.90;;;6.75;66.64;94876.97;4942239;28;20618;-87
2021/11/13 08:23:32;;;;;;;39.63;19.33;;;7.40;80.80;;;6.72;66.82;94875.50;4926444;28;20226;-88
2021/11/13 08:26:00;;;;;;;41.42;17.60;;;7.40;80.60;;;6.74;67.03;94870.16;4940971;28;20707;-87
2021/11/13 08:28:27;;;;;;;34.28;17.50;;;7.50;80.70;;;6.77;66.78;94875.00;4941158;28;20225;-87
2021/11/13 08:30:55;;;;;;;36.63;17.15;;;7.40;80.70;;;6.78;66.93;94868.00;4925426;28;20610;-88
2021/11/13 08:33:24;;;;;;;35.10;16.90;;;7.40;80.80;;;6.78;66.87;94870.63;4926803;28;20700;-87
2021/11/13 08:35:51;;;;;;;28.63;15.20;;;7.50;80.80;;;6.80;66.98;94876.47;4958527;28;20186;-86
2021/11/13 08:38:21;;;;;;;26.48;13.35;;;7.50;80.80;;;6.78;66.63;94874.03;4941705;28;20241;-87
2021/11/13 08:40:50;;;;;;;29.20;13.07;;;7.50;80.80;;;6.79;66.77;94873.06;4939044;29;20203;-87
2021/11/13 08:43:20;;;;;;;26.33;12.70;;;7.50;80.90;;;6.77;66.86;94863.78;4939117;28;20686;-88
2021/11/13 08:45:50;;;;;;;25.92;12.60;;;7.50;80.80;;;6.84;66.77;94877.75;4942806;28;20198;-87
2021/11/13 08:48:18;;;;;;;27.38;13.10;;;7.50;80.70;;;6.81;66.69;94870.25;4941440;28;20215;-88
2021/11/13 08:50:47;;;;;;;27.00;11.75;;;7.50;80.60;;;6.79;66.70;94862.63;4958384;28;20273;-88
2021/11/13 08:53:14;;;;;;;23.45;11.45;;;7.50;80.60;;;6.80;66.62;94869.47;4958061;28;20190;-88
2021/11/13 08:55:44;;;;;;;23.92;10.95;;;7.50;80.60;;;6.79;66.90;94867.03;4941999;28;20203;-88
2021/11/13 08:58:12;;;;;;;24.20;11.02;;;7.50;80.60;;;6.82;66.87;94871.91;4940810;28;20199;-89
2021/11/13 09:00:54;;;;;;;23.73;11.48;;;7.50;80.60;;;6.83;66.98;94870.91;4941197;28;20202;-88
2021/11/13 09:03:30;;;;;;;18.15;10.38;;;7.50;80.60;;;6.86;66.95;94866.19;4941805;28;20226;-88
2021/11/13 09:05:59;;;;;;;18.27;9.60;;;7.50;80.60;;;6.90;66.96;94866.66;4941368;28;20202;-88
2021/11/13 09:08:27;;;;;;;21.27;10.40;;;7.60;80.80;;;6.93;66.83;94865.50;4941724;28;20237;-88
2021/11/13 09:10:57;;;;;;;20.13;10.27;;;7.50;80.80;;;6.95;66.95;94859.13;4926192;28;20213;-87
2021/11/13 09:13:27;;;;;;;19.58;9.45;;;7.60;80.80;;;7.01;66.87;94865.47;4941325;28;20234;-88
2021/11/13 09:15:58;;;;;;;18.83;9.32;;;7.70;80.90;;;7.05;66.97;94869.34;4941395;28;20756;-88
2021/11/13 09:18:26;;;;;;;18.52;9.75;;;7.60;80.90;;;7.11;66.97;94870.47;4937786;29;20238;-88
2021/11/13 09:20:53;;;;;;;19.15;9.98;;;7.70;81.00;;;7.16;66.93;94875.97;4945086;28;20199;-89
2021/11/13 09:23:21;;;;;;;20.38;10.40;;;7.70;81.00;;;7.19;67.19;94880.88;4957166;28;20245;-89
2021/11/13 09:25:53;;;;;;;23.40;11.65;;;7.80;81.00;;;7.28;66.83;94884.22;4957653;28;20206;-87
2021/11/13 09:28:21;;;;;;;22.85;11.48;;;7.80;81.00;;;7.27;66.77;94877.38;4941969;28;20225;-87
2021/11/13 09:30:48;;;;;;;23.27;12.38;;;7.80;80.90;;;7.38;66.87;94887.41;4941599;28;20199;-87
2021/11/13 09:33:16;;;;;;;20.98;11.73;;;7.90;81.00;;;7.42;66.39;94893.13;4941890;28;20229;-88
2021/11/13 09:35:45;;;;;;;20.20;10.85;;;7.90;80.90;;;7.44;66.57;94883.31;4925684;28;20222;-87
2021/11/13 09:38:27;;;;;;;22.23;11.45;;;8.00;80.90;;;7.43;66.25;94872.06;4955992;28;20261;-87
2021/11/13 09:40:58;;;;;;;20.63;10.05;;;8.00;80.60;;;7.44;66.60;94876.28;4940959;28;20230;-88
2021/11/13 09:43:28;;;;;;;19.48;10.98;;;8.00;80.70;;;7.42;66.57;94874.84;4941285;28;20318;-88
2021/11/13 09:46:00;;;;;;;19.67;10.38;;;8.00;80.60;;;7.47;66.34;94869.91;4937979;29;20207;-87
2021/11/13 09:48:30;;;;;;;19.55;10.23;;;8.00;80.50;;;7.47;66.57;94875.13;4956701;28;20309;-88
2021/11/13 09:50:58;;;;;;;19.23;9.32;;;8.00;80.50;;;7.48;66.58;94869.75;4941234;28;20653;-88
2021/11/13 09:53:27;;;;;;;19.20;10.00;;;8.10;80.60;;;7.49;66.54;94871.34;4925572;28;20227;-91
2021/11/13 09:55:57;;;;;;;18.77;9.85;;;8.10;80.50;;;7.50;66.61;94856.53;4941393;28;20289;-89
2021/11/13 09:58:26;;;;;;;23.08;9.48;;;8.10;80.60;;;7.54;66.42;94852.56;4941403;28;20246;-90
2021/11/13 10:00:53;;;;;;;18.23;9.95;;;8.10;80.60;;;7.58;66.51;94863.47;4938237;29;20207;-91
2021/11/13 10:03:21;;;;;;;18.58;10.38;;;8.10;80.40;;;7.56;66.35;94845.38;4943647;28;20333;-90
2021/11/13 10:05:53;;;;;;;14.88;9.10;;;8.20;81.30;;;7.50;66.53;94833.03;4941492;28;20194;-88
2021/11/13 10:08:21;;;;;;;16.90;9.57;;;8.20;80.40;;;7.55;66.50;94833.31;4940920;28;20281;-88
2021/11/13 10:10:54;;;;;;;15.57;8.57;;;8.20;80.40;;;7.58;66.23;94832.16;4940643;28;20294;-88
2021/11/13 10:13:42;;;;;;;16.27;9.65;;;8.20;80.40;;;7.60;66.28;94831.00;4940827;28;20219;-88
2021/11/13 10:16:17;;;;;;;14.98;8.90;;;8.20;80.20;;;7.67;66.34;94836.34;4941183;28;20203;-88
2021/11/13 10:18:53;;;;;;;16.20;9.20;;;8.20;80.90;;;7.71;66.28;94829.78;4937883;29;20246;-88
2021/11/13 10:21:23;;;;;;;16.08;9.63;;;8.20;80.30;;;7.75;66.40;94827.63;4937987;29;20203;-88
2021/11/13 10:24:04;;;;;;;16.23;9.43;;;8.30;80.50;;;7.75;66.23;94815.41;4970139;28;20275;-88
2021/11/13 10:26:42;;;;;;;15.68;9.70;;;8.30;80.20;;;7.73;66.04;94816.56;4937634;29;20210;-88